createdAt,value
2023-08-12T00:00:22.815Z,100999.72
2023-08-12T00:02:50.050Z,100996.13
2023-08-12T00:05:17.049Z,101001.59
2023-08-12T00:07:44.134Z,100995.50
2023-08-12T00:10:12.718Z,100992.81
2023-08-12T00:12:40.732Z,100995.25
2023-08-12T00:15:09.450Z,101006.87
2023-08-12T00:17:42.512Z,100995.50
2023-08-12T00:20:12.481Z,100997.53
2023-08-12T00:22:40.010Z,100994.94
2023-08-12T00:25:07.741Z,100993.09
2023-08-12T00:27:35.051Z,100984.25
2023-08-12T00:30:02.703Z,100991.41
2023-08-12T00:32:29.652Z,100992.22
2023-08-12T00:34:56.715Z,100994.19
2023-08-12T00:37:24.111Z,100992.47
2023-08-12T00:39:51.434Z,100986.56
2023-08-12T00:42:18.301Z,100992.59
2023-08-12T00:44:45.284Z,100987.41
2023-08-12T00:47:12.472Z,100989.28
2023-08-12T00:49:41.244Z,100981.34
2023-08-12T00:52:08.156Z,100986.88
2023-08-12T00:54:35.135Z,100984.19
2023-08-12T00:57:02.151Z,100984.47
2023-08-12T00:59:29.948Z,100991.62
2023-08-12T01:01:57.080Z,100988.41
2023-08-12T01:04:23.949Z,100985.69
2023-08-12T01:06:50.817Z,100987.25
2023-08-12T01:09:17.908Z,100985.53
2023-08-12T01:12:03.324Z,100982.00
2023-08-12T01:14:50.864Z,100986.72
2023-08-12T01:17:18.550Z,100988.34
2023-08-12T01:19:48.796Z,100989.53
2023-08-12T01:22:17.796Z,100986.28
2023-08-12T01:24:46.030Z,100993.28
2023-08-12T01:27:14.605Z,100982.78
2023-08-12T01:29:47.729Z,100999.41
2023-08-12T01:32:54.330Z,100996.87
2023-08-12T01:35:26.282Z,100990.09
2023-08-12T01:37:55.120Z,100992.78
2023-08-12T01:40:22.779Z,101002.38
2023-08-12T01:42:49.799Z,100988.88
2023-08-12T01:45:17.009Z,100993.44
2023-08-12T01:47:44.973Z,100995.34
2023-08-12T01:50:12.076Z,100997.00
2023-08-12T01:52:39.012Z,100992.63
2023-08-12T01:55:06.096Z,100992.63
2023-08-12T01:57:32.996Z,100988.94
2023-08-12T02:00:00.095Z,100991.72
2023-08-12T02:02:27.046Z,100996.16
2023-08-12T02:04:53.944Z,100989.97
2023-08-12T02:07:20.851Z,100997.06
2023-08-12T02:09:47.956Z,100990.88
2023-08-12T02:12:14.893Z,100996.28
2023-08-12T02:14:41.700Z,100993.63
2023-08-12T02:17:08.710Z,100990.13
2023-08-12T02:19:36.040Z,100987.44
2023-08-12T02:22:04.773Z,100991.00
2023-08-12T02:24:31.925Z,100991.88
2023-08-12T02:26:58.839Z,100991.94
2023-08-12T02:29:25.744Z,100992.06
2023-08-12T02:31:52.731Z,100988.59
2023-08-12T02:34:19.734Z,100992.13
2023-08-12T02:36:46.561Z,100984.19
2023-08-12T02:39:13.686Z,100993.97
2023-08-12T02:41:40.569Z,100989.53
2023-08-12T02:44:07.488Z,100987.91
2023-08-12T02:46:34.405Z,100995.81
2023-08-12T02:49:01.332Z,100996.78
2023-08-12T02:51:28.179Z,100984.34
2023-08-12T02:53:55.077Z,100989.84
2023-08-12T02:56:21.938Z,100984.53
2023-08-12T02:58:49.215Z,100993.44
2023-08-12T03:01:17.200Z,100995.44
2023-08-12T03:03:44.259Z,100976.09
2023-08-12T03:06:11.398Z,100983.03
2023-08-12T03:08:38.295Z,100991.84
2023-08-12T03:11:05.226Z,100991.78
2023-08-12T03:13:32.352Z,100994.41
2023-08-12T03:15:59.214Z,100996.16
2023-08-12T03:18:26.197Z,100999.84
2023-08-12T03:20:53.142Z,100999.94
2023-08-12T03:23:20.009Z,100999.03
2023-08-12T03:25:48.720Z,101002.56
2023-08-12T03:28:15.669Z,100995.50
2023-08-12T03:30:42.525Z,100999.91
2023-08-12T03:33:09.443Z,100996.53
2023-08-12T03:35:36.566Z,101003.63
2023-08-12T03:38:03.479Z,101002.81
2023-08-12T03:40:30.437Z,101009.91
2023-08-12T03:42:57.274Z,101006.41
2023-08-12T03:45:24.127Z,101018.75
2023-08-12T03:47:51.009Z,101017.84
2023-08-12T03:50:17.853Z,101016.91
2023-08-12T03:52:44.681Z,101023.19
2023-08-12T03:55:11.812Z,101016.91
2023-08-12T03:57:38.620Z,101022.25
2023-08-12T04:00:08.236Z,101023.03
2023-08-12T04:02:37.403Z,101023.03
2023-08-12T04:05:04.507Z,101027.37
2023-08-12T04:07:32.859Z,101022.09
2023-08-12T04:09:59.800Z,101036.06
2023-08-12T04:12:26.778Z,101039.44
2023-08-12T04:14:53.626Z,101028.53
2023-08-12T04:17:20.516Z,101029.16
2023-08-12T04:19:47.706Z,101038.78
2023-08-12T04:22:14.504Z,101035.94
2023-08-12T04:24:41.392Z,101027.78
2023-08-12T04:27:08.590Z,101037.19
2023-08-12T04:29:36.855Z,101032.72
2023-08-12T04:32:03.816Z,101032.56
2023-08-12T04:34:31.186Z,101033.34
2023-08-12T04:36:58.266Z,101030.50
2023-08-12T04:39:25.234Z,101032.19
2023-08-12T04:41:52.123Z,101037.47
2023-08-12T04:44:18.941Z,101040.91
2023-08-12T04:46:45.954Z,101032.78
2023-08-12T04:49:12.832Z,101035.34
2023-08-12T04:51:39.659Z,101039.72
2023-08-12T04:54:06.614Z,101047.59
2023-08-12T04:56:33.463Z,101043.72
2023-08-12T04:59:00.343Z,101053.34
2023-08-12T05:01:27.378Z,101046.87
2023-08-12T05:03:54.254Z,101050.22
2023-08-12T05:06:21.156Z,101057.84
2023-08-12T05:08:48.032Z,101049.63
2023-08-12T05:11:14.860Z,101053.09
2023-08-12T05:13:41.695Z,101051.03
2023-08-12T05:16:08.569Z,101057.16
2023-08-12T05:18:35.501Z,101048.09
2023-08-12T05:21:02.344Z,101049.63
2023-08-12T05:23:29.267Z,101050.34
2023-08-12T05:28:40.616Z,101053.47
2023-08-12T05:31:07.495Z,101050.66
2023-08-12T05:33:34.529Z,101056.56
2023-08-12T05:36:01.855Z,101050.13
2023-08-12T05:38:28.678Z,101055.22
2023-08-12T05:40:55.525Z,101052.31
2023-08-12T05:43:22.346Z,101053.75
2023-08-12T05:45:49.575Z,101055.28
2023-08-12T05:48:16.449Z,101054.13
2023-08-12T05:50:44.187Z,101049.25
2023-08-12T05:53:11.081Z,101048.00
2023-08-12T05:55:38.036Z,101059.25
2023-08-12T05:58:05.935Z,101048.34
2023-08-12T06:00:32.825Z,101052.62
2023-08-12T06:02:59.658Z,101050.50
2023-08-12T06:05:26.502Z,101046.81
2023-08-12T06:07:53.353Z,101053.53
2023-08-12T06:10:20.265Z,101052.16
2023-08-12T06:12:47.115Z,101051.22
2023-08-12T06:15:13.973Z,101050.94
2023-08-12T06:17:40.865Z,101056.81
2023-08-12T06:20:08.320Z,101053.84
2023-08-12T06:22:35.260Z,101052.69
2023-08-12T06:25:02.176Z,101051.47
2023-08-12T06:27:29.222Z,101044.88
2023-08-12T06:29:56.072Z,101043.59
2023-08-12T06:32:22.926Z,101040.81
2023-08-12T06:34:49.920Z,101036.06
2023-08-12T06:37:16.867Z,101036.41
2023-08-12T06:39:43.821Z,101043.22
2023-08-12T06:42:11.006Z,101037.56
2023-08-12T06:44:38.225Z,101039.78
2023-08-12T06:47:05.142Z,101036.06
2023-08-12T06:49:32.095Z,101026.00
2023-08-12T06:51:58.979Z,101029.06
2023-08-12T06:54:25.919Z,101027.19
2023-08-12T06:56:52.738Z,101033.63
2023-08-12T06:59:19.655Z,101034.44
2023-08-12T07:01:46.655Z,101039.53
2023-08-12T07:04:13.618Z,101030.28
2023-08-12T07:06:40.572Z,101040.44
2023-08-12T07:09:07.441Z,101031.16
2023-08-12T07:11:34.636Z,101035.28
2023-08-12T07:14:01.613Z,101042.16
2023-08-12T07:16:28.499Z,101043.47
2023-08-12T07:18:55.398Z,101034.59
2023-08-12T07:21:22.323Z,101042.19
2023-08-12T07:24:02.001Z,101040.06
2023-08-12T07:26:30.552Z,101040.25
2023-08-12T07:28:57.714Z,101042.44
2023-08-12T07:31:24.661Z,101046.28
2023-08-12T07:33:53.074Z,101049.22
2023-08-12T07:36:20.053Z,101042.72
2023-08-12T07:38:46.936Z,101042.94
2023-08-12T07:41:13.785Z,101040.87
2023-08-12T07:43:40.654Z,101040.59
2023-08-12T07:46:09.965Z,101046.66
2023-08-12T07:48:38.518Z,101040.34
2023-08-12T07:51:05.436Z,101039.44
2023-08-12T07:53:32.312Z,101036.53
2023-08-12T07:55:59.097Z,101035.84
2023-08-12T07:58:25.981Z,101029.38
2023-08-12T08:00:56.109Z,101031.00
2023-08-12T08:03:23.055Z,101034.44
2023-08-12T08:05:49.956Z,101040.72
2023-08-12T08:08:16.883Z,101021.19
2023-08-12T08:10:44.581Z,101027.72
2023-08-12T08:13:11.392Z,101024.56
2023-08-12T08:15:38.878Z,101024.84
2023-08-12T08:18:08.244Z,101018.41
2023-08-12T08:20:35.361Z,101021.44
2023-08-12T08:23:02.381Z,101024.91
2023-08-12T08:25:29.180Z,101030.31
2023-08-12T08:27:56.045Z,101028.09
2023-08-12T08:30:24.048Z,101026.00
2023-08-12T08:32:50.975Z,101026.94
2023-08-12T08:35:18.190Z,101028.81
2023-08-12T08:37:45.010Z,101029.16
2023-08-12T08:40:13.174Z,101029.00
2023-08-12T08:42:42.081Z,101020.13
2023-08-12T08:45:13.923Z,101022.38
2023-08-12T08:47:42.766Z,101028.41
2023-08-12T08:50:11.198Z,101024.19
2023-08-12T08:52:39.131Z,101029.78
2023-08-12T08:55:08.210Z,101023.91
2023-08-12T09:00:16.437Z,101023.06
2023-08-12T09:02:47.366Z,101018.66
2023-08-12T09:05:15.841Z,101026.41
2023-08-12T09:07:43.540Z,101021.56
2023-08-12T09:10:13.977Z,101015.81
2023-08-12T09:12:43.338Z,101024.53
2023-08-12T09:15:10.781Z,101017.03
2023-08-12T09:17:38.354Z,101002.38
2023-08-12T09:20:13.544Z,101001.41
2023-08-12T09:22:44.417Z,101009.69
2023-08-12T09:25:12.237Z,101009.00
2023-08-12T09:27:39.759Z,101002.03
2023-08-12T09:30:07.935Z,101002.25
2023-08-12T09:32:39.878Z,100997.09
2023-08-12T09:35:07.657Z,100994.19
2023-08-12T09:37:34.543Z,101000.28
2023-08-12T09:40:02.137Z,100993.47
2023-08-12T09:42:29.285Z,100988.28
2023-08-12T09:44:57.761Z,100989.81
2023-08-12T09:47:28.200Z,100984.41
2023-08-12T09:49:56.197Z,100981.81
2023-08-12T09:52:23.469Z,100979.97
2023-08-12T09:54:52.136Z,100985.94
2023-08-12T09:57:21.436Z,100980.59
2023-08-12T09:59:50.316Z,100982.25
2023-08-12T10:02:21.067Z,100965.09
2023-08-12T10:04:52.039Z,100966.38
2023-08-12T10:07:20.324Z,100974.81
2023-08-12T10:09:47.852Z,100973.16
2023-08-12T10:12:19.061Z,100964.56
2023-08-12T10:14:48.540Z,100957.38
2023-08-12T10:17:21.476Z,100959.94
2023-08-12T10:19:59.210Z,100956.78
2023-08-12T10:22:30.655Z,100955.53
2023-08-12T10:25:03.495Z,100959.16
2023-08-12T10:27:30.701Z,100946.22
2023-08-12T10:29:58.786Z,100946.78
2023-08-12T10:32:30.788Z,100947.81
2023-08-12T10:34:58.753Z,100938.72
2023-08-12T10:37:28.873Z,100943.62
2023-08-12T10:39:55.930Z,100936.72
2023-08-12T10:42:48.068Z,100936.81
2023-08-12T10:45:17.372Z,100937.69
2023-08-12T10:48:05.571Z,100930.69
2023-08-12T10:50:33.109Z,100924.97
2023-08-12T10:52:59.906Z,100917.94
2023-08-12T10:55:28.446Z,100919.84
2023-08-12T10:57:59.102Z,100913.84
2023-08-12T11:00:30.288Z,100925.94
2023-08-12T11:02:58.413Z,100919.25
2023-08-12T11:05:36.925Z,100921.78
2023-08-12T11:08:07.141Z,100908.37
2023-08-12T11:10:35.790Z,100911.31
2023-08-12T11:13:04.420Z,100907.78
2023-08-12T11:15:38.749Z,100914.84
2023-08-12T11:18:06.674Z,100901.91
2023-08-12T11:20:34.649Z,100903.53
2023-08-12T11:23:02.517Z,100901.13
2023-08-12T11:25:31.142Z,100899.50
2023-08-12T11:27:58.616Z,100896.06
2023-08-12T11:30:26.173Z,100892.94
2023-08-12T11:32:54.902Z,100894.97
2023-08-12T11:35:23.583Z,100886.62
2023-08-12T11:37:59.530Z,100870.87
2023-08-12T11:40:28.616Z,100878.34
2023-08-12T11:42:56.133Z,100868.22
2023-08-12T11:45:27.410Z,100880.06
2023-08-12T11:47:54.939Z,100867.81
2023-08-12T11:50:24.949Z,100867.31
2023-08-12T11:52:53.252Z,100865.44
2023-08-12T11:55:20.398Z,100865.13
2023-08-12T11:57:47.551Z,100861.28
2023-08-12T12:00:16.606Z,100859.97
2023-08-12T12:02:52.312Z,100859.97
2023-08-12T12:05:24.593Z,100856.63
2023-08-12T12:07:52.862Z,100852.59
2023-08-12T12:10:23.260Z,100854.59
2023-08-12T12:12:50.443Z,100850.78
2023-08-12T12:15:17.460Z,100847.69
2023-08-12T12:17:47.274Z,100844.97
2023-08-12T12:20:15.559Z,100834.28
2023-08-12T12:22:47.268Z,100835.00
2023-08-12T12:25:15.832Z,100833.59
2023-08-12T12:27:44.131Z,100829.22
2023-08-12T12:30:13.032Z,100828.84
2023-08-12T12:32:40.993Z,100828.12
2023-08-12T12:35:08.720Z,100823.44
2023-08-12T12:37:36.464Z,100820.56
2023-08-12T12:40:04.442Z,100817.41
2023-08-12T12:42:32.067Z,100824.31
2023-08-12T12:44:59.049Z,100820.97
2023-08-12T12:47:26.001Z,100812.22
2023-08-12T12:49:52.843Z,100813.63
2023-08-12T12:52:19.702Z,100804.72
2023-08-12T12:54:46.582Z,100800.13
2023-08-12T12:57:13.383Z,100801.91
2023-08-12T12:59:40.344Z,100800.41
2023-08-12T13:02:07.262Z,100793.63
2023-08-12T13:04:34.075Z,100802.53
2023-08-12T13:07:01.902Z,100797.25
2023-08-12T13:09:28.817Z,100795.12
2023-08-12T13:11:58.290Z,100797.69
2023-08-12T13:14:25.652Z,100787.50
2023-08-12T13:16:52.629Z,100788.47
2023-08-12T13:19:19.524Z,100782.41
2023-08-12T13:21:46.421Z,100774.59
2023-08-12T13:24:13.459Z,100787.41
2023-08-12T13:26:40.295Z,100787.31
2023-08-12T13:29:07.405Z,100781.91
2023-08-12T13:31:34.490Z,100790.88
2023-08-12T13:34:01.596Z,100772.44
2023-08-12T13:36:28.500Z,100766.97
2023-08-12T13:38:55.459Z,100763.56
2023-08-12T13:41:23.076Z,100763.97
2023-08-12T13:43:49.976Z,100771.22
2023-08-12T13:46:16.906Z,100763.84
2023-08-12T13:48:43.780Z,100756.31
2023-08-12T13:51:10.882Z,100754.25
2023-08-12T13:53:37.758Z,100753.91
2023-08-12T13:56:05.164Z,100747.78
2023-08-12T13:58:32.124Z,100747.72
2023-08-12T14:00:59.045Z,100742.69
2023-08-12T14:03:26.085Z,100732.22
2023-08-12T14:05:53.223Z,100730.78
2023-08-12T14:08:20.261Z,100735.31
2023-08-12T14:10:48.713Z,100733.78
2023-08-12T14:13:15.588Z,100725.72
2023-08-12T14:15:42.536Z,100725.84
2023-08-12T14:18:09.480Z,100721.69
2023-08-12T14:20:36.728Z,100729.53
2023-08-12T14:23:03.636Z,100714.22
2023-08-12T14:25:31.211Z,100722.53
2023-08-12T14:27:58.147Z,100722.44
2023-08-12T14:30:29.156Z,100724.91
2023-08-12T14:32:56.108Z,100710.22
2023-08-12T14:35:23.140Z,100712.13
2023-08-12T14:37:50.109Z,100716.16
2023-08-12T14:40:17.072Z,100711.25
2023-08-12T14:42:44.012Z,100710.22
2023-08-12T14:45:11.637Z,100714.19
2023-08-12T14:47:38.564Z,100709.47
2023-08-12T14:50:05.910Z,100708.63
2023-08-12T14:52:34.777Z,100707.81
2023-08-12T14:55:01.911Z,100703.50
2023-08-12T14:57:28.859Z,100694.22
2023-08-12T14:59:55.710Z,100696.56
2023-08-12T15:02:25.741Z,100697.41
2023-08-12T15:04:52.776Z,100686.44
2023-08-12T15:07:21.313Z,100685.25
2023-08-12T15:09:48.715Z,100691.03
2023-08-12T15:12:15.611Z,100688.84
2023-08-12T15:14:42.541Z,100671.94
2023-08-12T15:17:09.491Z,100673.25
2023-08-12T15:19:36.401Z,100674.41
2023-08-12T15:22:03.336Z,100671.37
2023-08-12T15:24:30.245Z,100674.84
2023-08-12T15:26:57.108Z,100665.00
2023-08-12T15:29:24.051Z,100663.31
2023-08-12T15:31:51.412Z,100659.47
2023-08-12T15:34:18.530Z,100656.50
2023-08-12T15:36:45.739Z,100648.53
2023-08-12T15:39:12.976Z,100651.28
2023-08-12T15:41:44.736Z,100651.47
2023-08-12T15:44:12.775Z,100653.19
2023-08-12T15:46:41.019Z,100653.94
2023-08-12T15:49:11.814Z,100648.75
2023-08-12T15:51:39.853Z,100650.50
2023-08-12T15:54:07.540Z,100648.06
2023-08-12T15:56:37.601Z,100645.50
2023-08-12T15:59:06.044Z,100642.03
2023-08-12T16:01:33.824Z,100629.87
2023-08-12T16:04:01.138Z,100637.41
2023-08-12T16:06:28.167Z,100639.31
2023-08-12T16:09:14.956Z,100628.91
2023-08-12T16:11:42.020Z,100630.22
2023-08-12T16:14:08.931Z,100635.28
2023-08-12T16:16:35.828Z,100634.53
2023-08-12T16:19:03.479Z,100635.66
2023-08-12T16:21:30.832Z,100638.47
2023-08-12T16:23:57.817Z,100637.81
2023-08-12T16:26:24.786Z,100628.34
2023-08-12T16:28:51.809Z,100632.28
2023-08-12T16:31:18.903Z,100630.22
2023-08-12T16:33:45.866Z,100622.66
2023-08-12T16:36:12.721Z,100629.84
2023-08-12T16:38:40.067Z,100628.22
2023-08-12T16:41:06.971Z,100632.88
2023-08-12T16:43:33.949Z,100626.25
2023-08-12T16:46:00.928Z,100630.53
2023-08-12T16:48:27.839Z,100632.06
2023-08-12T16:50:54.682Z,100629.12
2023-08-12T16:53:21.839Z,100635.75
2023-08-12T16:55:49.066Z,100627.06
2023-08-12T16:58:15.875Z,100630.84
2023-08-12T17:00:43.778Z,100634.03
2023-08-12T17:03:10.889Z,100626.09
2023-08-12T17:05:37.740Z,100625.69
2023-08-12T17:08:04.894Z,100625.06
2023-08-12T17:10:31.840Z,100616.41
2023-08-12T17:12:58.721Z,100629.72
2023-08-12T17:15:25.910Z,100635.56
2023-08-12T17:17:52.804Z,100632.50
2023-08-12T17:20:19.789Z,100632.56
2023-08-12T17:22:46.638Z,100636.09
2023-08-12T17:25:13.590Z,100630.00
2023-08-12T17:27:40.517Z,100630.13
2023-08-12T17:30:08.004Z,100635.50
2023-08-12T17:32:35.358Z,100640.44
2023-08-12T17:35:02.277Z,100636.84
2023-08-12T17:37:29.219Z,100640.69
2023-08-12T17:39:56.138Z,100641.09
2023-08-12T17:42:23.037Z,100640.28
2023-08-12T17:44:49.885Z,100640.69
2023-08-12T17:47:17.803Z,100642.78
2023-08-12T17:49:44.831Z,100637.47
2023-08-12T17:52:12.241Z,100644.88
2023-08-12T17:54:39.398Z,100646.59
2023-08-12T17:57:06.344Z,100642.38
2023-08-12T17:59:33.678Z,100641.50
2023-08-12T18:02:00.690Z,100641.56
2023-08-12T18:04:27.639Z,100642.25
2023-08-12T18:06:54.506Z,100648.62
2023-08-12T18:09:21.721Z,100647.94
2023-08-12T18:11:48.627Z,100649.00
2023-08-12T18:14:15.841Z,100660.41
2023-08-12T18:16:42.960Z,100657.47
2023-08-12T18:19:09.927Z,100656.47
2023-08-12T18:21:36.802Z,100653.22
2023-08-12T18:24:03.815Z,100656.50
2023-08-12T18:26:30.860Z,100661.06
2023-08-12T18:28:57.870Z,100667.78
2023-08-12T18:31:24.813Z,100669.19
2023-08-12T18:33:51.985Z,100672.09
2023-08-12T18:36:18.893Z,100666.91
2023-08-12T18:38:47.048Z,100677.06
2023-08-12T18:41:14.040Z,100676.41
2023-08-12T18:43:40.937Z,100683.09
2023-08-12T18:46:07.994Z,100682.22
2023-08-12T18:48:34.931Z,100685.44
2023-08-12T18:51:01.996Z,100688.00
2023-08-12T18:53:30.758Z,100696.50
2023-08-12T18:55:58.081Z,100699.66
2023-08-12T18:58:25.288Z,100703.16
2023-08-12T19:00:52.248Z,100698.72
2023-08-12T19:03:19.281Z,100703.66
2023-08-12T19:05:48.299Z,100704.22
2023-08-12T19:08:16.964Z,100708.47
2023-08-12T19:10:45.316Z,100704.13
2023-08-12T19:13:12.298Z,100711.66
2023-08-12T19:15:39.567Z,100716.28
2023-08-12T19:18:06.668Z,100715.81
2023-08-12T19:20:33.650Z,100714.63
2023-08-12T19:23:00.537Z,100719.69
2023-08-12T19:25:27.588Z,100724.69
2023-08-12T19:27:54.613Z,100715.91
2023-08-12T19:30:22.381Z,100724.78
2023-08-12T19:32:55.985Z,100719.47
2023-08-12T19:35:23.350Z,100720.72
2023-08-12T19:37:52.964Z,100719.94
2023-08-12T19:40:20.459Z,100716.75
2023-08-12T19:42:47.926Z,100720.78
2023-08-12T19:45:15.456Z,100724.97
2023-08-12T19:47:44.322Z,100731.78
2023-08-12T19:50:13.525Z,100736.28
2023-08-12T19:52:40.565Z,100740.94
2023-08-12T19:55:09.277Z,100737.97
2023-08-12T19:57:36.680Z,100738.06
2023-08-12T20:00:05.974Z,100735.56
2023-08-12T20:02:39.372Z,100737.75
2023-08-12T20:05:16.481Z,100736.13
2023-08-12T20:07:46.713Z,100738.47
2023-08-12T20:10:19.144Z,100741.87
2023-08-12T20:12:47.569Z,100743.88
2023-08-12T20:15:14.730Z,100744.19
2023-08-12T20:17:43.056Z,100753.03
2023-08-12T20:20:18.321Z,100756.72
2023-08-12T20:22:59.672Z,100747.84
2023-08-12T20:25:31.095Z,100755.41
2023-08-12T20:27:59.458Z,100748.44
2023-08-12T20:30:27.186Z,100751.63
2023-08-12T20:32:55.726Z,100749.78
2023-08-12T20:35:23.970Z,100755.91
2023-08-12T20:37:51.289Z,100751.09
2023-08-12T20:40:19.713Z,100754.66
2023-08-12T20:42:47.316Z,100757.81
2023-08-12T20:45:14.895Z,100757.19
2023-08-12T20:47:43.322Z,100764.88
2023-08-12T20:50:11.056Z,100765.25
2023-08-12T20:52:37.986Z,100774.16
2023-08-12T20:55:05.532Z,100771.56
2023-08-12T20:57:32.697Z,100770.13
2023-08-12T21:00:02.711Z,100775.50
2023-08-12T21:02:30.704Z,100779.84
2023-08-12T21:04:57.981Z,100781.78
2023-08-12T21:07:24.972Z,100787.06
2023-08-12T21:09:51.858Z,100774.06
2023-08-12T21:12:18.738Z,100783.81
2023-08-12T21:14:45.574Z,100778.56
2023-08-12T21:17:12.593Z,100783.00
2023-08-12T21:19:39.597Z,100774.28
2023-08-12T21:22:06.587Z,100771.88
2023-08-12T21:24:33.517Z,100781.19
2023-08-12T21:27:00.487Z,100781.19
2023-08-12T21:29:27.441Z,100774.00
2023-08-12T21:31:54.429Z,100777.28
2023-08-12T21:34:21.468Z,100777.72
2023-08-12T21:36:48.323Z,100771.53
2023-08-12T21:39:15.189Z,100776.84
2023-08-12T21:41:42.172Z,100772.69
2023-08-12T21:44:09.218Z,100771.03
2023-08-12T21:46:36.090Z,100770.31
2023-08-12T21:49:03.076Z,100774.88
2023-08-12T21:51:29.933Z,100766.59
2023-08-12T21:53:56.880Z,100771.19
2023-08-12T21:56:23.724Z,100771.91
2023-08-12T21:58:50.572Z,100773.50
2023-08-12T22:01:17.461Z,100762.78
2023-08-12T22:03:44.492Z,100756.81
2023-08-12T22:06:12.022Z,100753.31
2023-08-12T22:08:39.038Z,100762.31
2023-08-12T22:11:06.829Z,100764.28
2023-08-12T22:13:33.825Z,100762.59
2023-08-12T22:16:00.825Z,100751.31
2023-08-12T22:18:27.775Z,100754.75
2023-08-12T22:20:55.368Z,100755.09
2023-08-12T22:23:23.524Z,100749.91
2023-08-12T22:25:51.545Z,100759.00
2023-08-12T22:28:21.549Z,100755.09
2023-08-12T22:30:49.082Z,100762.94
2023-08-12T22:33:16.465Z,100759.84
2023-08-12T22:35:43.634Z,100751.75
2023-08-12T22:38:10.869Z,100751.59
2023-08-12T22:40:37.805Z,100748.66
2023-08-12T22:43:04.845Z,100752.47
2023-08-12T22:45:34.770Z,100748.91
2023-08-12T22:48:01.654Z,100747.44
2023-08-12T22:50:28.582Z,100753.00
2023-08-12T22:52:55.425Z,100739.03
2023-08-12T22:55:22.354Z,100747.88
2023-08-12T22:57:49.556Z,100743.25
2023-08-12T23:00:16.597Z,100755.16
2023-08-12T23:02:43.949Z,100757.38
2023-08-12T23:05:11.448Z,100758.75
2023-08-12T23:07:38.451Z,100754.69
2023-08-12T23:10:06.163Z,100749.44
2023-08-12T23:12:33.668Z,100753.56
2023-08-12T23:15:00.648Z,100754.91
2023-08-12T23:17:27.588Z,100743.97
2023-08-12T23:19:54.404Z,100742.47
2023-08-12T23:22:21.304Z,100735.41
2023-08-12T23:24:48.177Z,100742.59
2023-08-12T23:27:15.101Z,100748.50
2023-08-12T23:29:41.962Z,100755.94
2023-08-12T23:32:09.323Z,100757.25
2023-08-12T23:34:36.201Z,100752.81
2023-08-12T23:37:03.287Z,100751.38
2023-08-12T23:39:31.874Z,100755.31
2023-08-12T23:41:59.132Z,100754.34
2023-08-12T23:44:26.061Z,100756.97
2023-08-12T23:46:53.039Z,100751.97
2023-08-12T23:49:20.193Z,100753.78
2023-08-12T23:51:48.767Z,100753.06
2023-08-12T23:54:15.698Z,100757.00
2023-08-12T23:56:42.664Z,100754.31
2023-08-12T23:59:09.610Z,100752.75
